<?xml version="1.0" encoding="UTF-8" standalone="no" ?>
<gpx xmlns="http://www.topografix.com/GPX/1/1" xmlns:xsi="http://www.w3.org/2001/XMLSchema-instance" xsi:schemaLocation="http://www.topografix.com/GPX/1/1 http://www.topografix.com/GPX/1/1/gpx.xsd" version="1.1" creator="VisuGPX - https://www.visugpx.com">
  <metadata>
    <name>Tour de France 2019</name>
    <desc><![CDATA[4272km en 2 mois en tandem avec notre petit chien dans le panier avant]]></desc>
  </metadata>
  <trk>
    <name><![CDATA[Tracé 20191007-091037]]></name>
    <trkseg>
      <trkpt lat="45.59993" lon="5.87419">
        <ele>256.025</ele>
        <time>2019-10-07T07:15:04Z</time>
      </trkpt>
      <trkpt lat="45.60018" lon="5.87355">
        <ele>264.962</ele>
        <time>2019-10-07T07:16:46Z</time>
      </trkpt>
      <trkpt lat="45.59957" lon="5.87353">
        <ele>269.319</ele>
        <time>2019-10-07T07:17:16Z</time>
      </trkpt>
      <trkpt lat="45.59823" lon="5.87428">
        <ele>271.588</ele>
        <time>2019-10-07T07:17:46Z</time>
      </trkpt>
      <trkpt lat="45.59723" lon="5.87565">
        <ele>274.302</ele>
        <time>2019-10-07T07:18:19Z</time>
      </trkpt>
      <trkpt lat="45.59701" lon="5.87801">
        <ele>272.181</ele>
        <time>2019-10-07T07:18:49Z</time>
      </trkpt>
      <trkpt lat="45.59568" lon="5.87847">
        <ele>269.57</ele>
        <time>2019-10-07T07:19:19Z</time>
      </trkpt>
      <trkpt lat="45.59428" lon="5.87895">
        <ele>269.272</ele>
        <time>2019-10-07T07:19:49Z</time>
      </trkpt>
      <trkpt lat="45.59348" lon="5.87893">
        <ele>267.587</ele>
        <time>2019-10-07T07:20:25Z</time>
      </trkpt>
      <trkpt lat="45.59271" lon="5.87974">
        <ele>268.153</ele>
        <time>2019-10-07T07:20:58Z</time>
      </trkpt>
      <trkpt lat="45.5915" lon="5.88057">
        <ele>263.15</ele>
        <time>2019-10-07T07:21:28Z</time>
      </trkpt>
      <trkpt lat="45.59003" lon="5.88166">
        <ele>260.997</ele>
        <time>2019-10-07T07:22:01Z</time>
      </trkpt>
      <trkpt lat="45.58853" lon="5.88247">
        <ele>256.776</ele>
        <time>2019-10-07T07:22:31Z</time>
      </trkpt>
      <trkpt lat="45.58744" lon="5.88333">
        <ele>261.432</ele>
        <time>2019-10-07T07:23:01Z</time>
      </trkpt>
      <trkpt lat="45.5864" lon="5.884">
        <ele>261.883</ele>
        <time>2019-10-07T07:23:31Z</time>
      </trkpt>
      <trkpt lat="45.58563" lon="5.88455">
        <ele>265.7</ele>
        <time>2019-10-07T07:24:01Z</time>
      </trkpt>
      <trkpt lat="45.58488" lon="5.88509">
        <ele>266.32</ele>
        <time>2019-10-07T07:24:31Z</time>
      </trkpt>
      <trkpt lat="45.58388" lon="5.88579">
        <ele>276.928</ele>
        <time>2019-10-07T07:25:01Z</time>
      </trkpt>
      <trkpt lat="45.58283" lon="5.88649">
        <ele>279.478</ele>
        <time>2019-10-07T07:25:31Z</time>
      </trkpt>
      <trkpt lat="45.58171" lon="5.88746">
        <ele>270.16</ele>
        <time>2019-10-07T07:26:04Z</time>
      </trkpt>
      <trkpt lat="45.5812" lon="5.88948">
        <ele>265.018</ele>
        <time>2019-10-07T07:26:34Z</time>
      </trkpt>
      <trkpt lat="45.58034" lon="5.8915">
        <ele>264.469</ele>
        <time>2019-10-07T07:27:04Z</time>
      </trkpt>
      <trkpt lat="45.57935" lon="5.89336">
        <ele>262.286</ele>
        <time>2019-10-07T07:27:34Z</time>
      </trkpt>
      <trkpt lat="45.57837" lon="5.89506">
        <ele>266.682</ele>
        <time>2019-10-07T07:28:04Z</time>
      </trkpt>
      <trkpt lat="45.57742" lon="5.89669">
        <ele>272.371</ele>
        <time>2019-10-07T07:28:34Z</time>
      </trkpt>
      <trkpt lat="45.57659" lon="5.89835">
        <ele>271.04</ele>
        <time>2019-10-07T07:29:04Z</time>
      </trkpt>
      <trkpt lat="45.57553" lon="5.9002">
        <ele>271.332</ele>
        <time>2019-10-07T07:29:37Z</time>
      </trkpt>
      <trkpt lat="45.57467" lon="5.90209">
        <ele>267</ele>
        <time>2019-10-07T07:30:07Z</time>
      </trkpt>
      <trkpt lat="45.57392" lon="5.90402">
        <ele>270.205</ele>
        <time>2019-10-07T07:30:37Z</time>
      </trkpt>
      <trkpt lat="45.57343" lon="5.90567">
        <ele>277.557</ele>
        <time>2019-10-07T07:31:07Z</time>
      </trkpt>
      <trkpt lat="45.57285" lon="5.90807">
        <ele>274.004</ele>
        <time>2019-10-07T07:31:37Z</time>
      </trkpt>
      <trkpt lat="45.57226" lon="5.91012">
        <ele>269.056</ele>
        <time>2019-10-07T07:32:07Z</time>
      </trkpt>
      <trkpt lat="45.57157" lon="5.91088">
        <ele>272.814</ele>
        <time>2019-10-07T07:32:40Z</time>
      </trkpt>
      <trkpt lat="45.57049" lon="5.91186">
        <ele>284.222</ele>
        <time>2019-10-07T07:33:10Z</time>
      </trkpt>
      <trkpt lat="45.56982" lon="5.91347">
        <ele>290.222</ele>
        <time>2019-10-07T07:33:43Z</time>
      </trkpt>
      <trkpt lat="45.56979" lon="5.91543">
        <ele>284.254</ele>
        <time>2019-10-07T07:34:13Z</time>
      </trkpt>
      <trkpt lat="45.57004" lon="5.91642">
        <ele>280.907</ele>
        <time>2019-10-07T07:35:04Z</time>
      </trkpt>
      <trkpt lat="45.57019" lon="5.91784">
        <ele>277.156</ele>
        <time>2019-10-07T07:35:34Z</time>
      </trkpt>
      <trkpt lat="45.56904" lon="5.919">
        <ele>282.728</ele>
        <time>2019-10-07T07:36:04Z</time>
      </trkpt>
      <trkpt lat="45.56828" lon="5.92031">
        <ele>283.909</ele>
        <time>2019-10-07T07:36:34Z</time>
      </trkpt>
      <trkpt lat="45.56767" lon="5.9216">
        <ele>291.113</ele>
        <time>2019-10-07T07:37:04Z</time>
      </trkpt>
      <trkpt lat="45.56678" lon="5.92277">
        <ele>310.767</ele>
        <time>2019-10-07T07:37:37Z</time>
      </trkpt>
      <trkpt lat="45.56655" lon="5.92292">
        <ele>310.891</ele>
        <time>2019-10-07T07:39:10Z</time>
      </trkpt>
      <trkpt lat="45.56665" lon="5.92287">
        <ele>310.282</ele>
        <time>2019-10-07T07:40:43Z</time>
      </trkpt>
      <trkpt lat="45.56655" lon="5.92278">
        <ele>303.058</ele>
        <time>2019-10-07T07:41:58Z</time>
      </trkpt>
      <trkpt lat="45.56606" lon="5.92182">
        <ele>296.286</ele>
        <time>2019-10-07T07:42:28Z</time>
      </trkpt>
      <trkpt lat="45.56529" lon="5.92053">
        <ele>295.572</ele>
        <time>2019-10-07T07:43:01Z</time>
      </trkpt>
      <trkpt lat="45.56475" lon="5.91931">
        <ele>283.975</ele>
        <time>2019-10-07T07:43:34Z</time>
      </trkpt>
      <trkpt lat="45.56486" lon="5.9197">
        <ele>278.63</ele>
        <time>2019-10-07T07:44:10Z</time>
      </trkpt>
      <trkpt lat="45.56474" lon="5.91921">
        <ele>277.4</ele>
        <time>2019-10-07T07:44:52Z</time>
      </trkpt>
      <trkpt lat="45.56468" lon="5.91912">
        <ele>277.87</ele>
        <time>2019-10-07T07:45:55Z</time>
      </trkpt>
      <trkpt lat="45.56405" lon="5.91957">
        <ele>288.573</ele>
        <time>2019-10-07T07:46:34Z</time>
      </trkpt>
      <trkpt lat="45.56347" lon="5.92059">
        <ele>286.449</ele>
        <time>2019-10-07T07:47:04Z</time>
      </trkpt>
      <trkpt lat="45.56323" lon="5.92257">
        <ele>280.884</ele>
        <time>2019-10-07T07:47:34Z</time>
      </trkpt>
      <trkpt lat="45.56278" lon="5.92419">
        <ele>290.57</ele>
        <time>2019-10-07T07:48:04Z</time>
      </trkpt>
      <trkpt lat="45.56248" lon="5.92608">
        <ele>280.406</ele>
        <time>2019-10-07T07:48:34Z</time>
      </trkpt>
      <trkpt lat="45.56306" lon="5.92801">
        <ele>275.266</ele>
        <time>2019-10-07T07:49:07Z</time>
      </trkpt>
      <trkpt lat="45.5631" lon="5.92951">
        <ele>272.467</ele>
        <time>2019-10-07T07:49:37Z</time>
      </trkpt>
      <trkpt lat="45.56306" lon="5.93022">
        <ele>273.256</ele>
        <time>2019-10-07T07:51:13Z</time>
      </trkpt>
      <trkpt lat="45.56342" lon="5.93108">
        <ele>277.532</ele>
        <time>2019-10-07T07:51:43Z</time>
      </trkpt>
      <trkpt lat="45.56426" lon="5.93255">
        <ele>276.887</ele>
        <time>2019-10-07T07:52:13Z</time>
      </trkpt>
      <trkpt lat="45.56542" lon="5.93369">
        <ele>287.965</ele>
        <time>2019-10-07T07:52:43Z</time>
      </trkpt>
      <trkpt lat="45.56579" lon="5.93479">
        <ele>286.117</ele>
        <time>2019-10-07T07:53:13Z</time>
      </trkpt>
      <trkpt lat="45.56522" lon="5.93644">
        <ele>280.172</ele>
        <time>2019-10-07T07:53:46Z</time>
      </trkpt>
      <trkpt lat="45.56507" lon="5.93785">
        <ele>288.621</ele>
        <time>2019-10-07T07:54:16Z</time>
      </trkpt>
      <trkpt lat="45.56422" lon="5.93931">
        <ele>290.469</ele>
        <time>2019-10-07T07:54:46Z</time>
      </trkpt>
      <trkpt lat="45.56306" lon="5.94052">
        <ele>290.828</ele>
        <time>2019-10-07T07:55:16Z</time>
      </trkpt>
      <trkpt lat="45.56171" lon="5.94085">
        <ele>291.389</ele>
        <time>2019-10-07T07:55:46Z</time>
      </trkpt>
      <trkpt lat="45.56115" lon="5.94179">
        <ele>280.292</ele>
        <time>2019-10-07T07:56:16Z</time>
      </trkpt>
      <trkpt lat="45.56103" lon="5.94344">
        <ele>288.105</ele>
        <time>2019-10-07T07:56:46Z</time>
      </trkpt>
      <trkpt lat="45.56054" lon="5.94535">
        <ele>289.669</ele>
        <time>2019-10-07T07:57:16Z</time>
      </trkpt>
      <trkpt lat="45.55911" lon="5.94645">
        <ele>282.776</ele>
        <time>2019-10-07T07:57:49Z</time>
      </trkpt>
      <trkpt lat="45.55844" lon="5.94806">
        <ele>289.179</ele>
        <time>2019-10-07T07:58:19Z</time>
      </trkpt>
      <trkpt lat="45.55757" lon="5.94885">
        <ele>292.244</ele>
        <time>2019-10-07T07:58:52Z</time>
      </trkpt>
      <trkpt lat="45.55651" lon="5.9501">
        <ele>293.8</ele>
        <time>2019-10-07T07:59:22Z</time>
      </trkpt>
      <trkpt lat="45.55515" lon="5.95187">
        <ele>291.783</ele>
        <time>2019-10-07T07:59:52Z</time>
      </trkpt>
      <trkpt lat="45.55378" lon="5.95352">
        <ele>290.618</ele>
        <time>2019-10-07T08:00:22Z</time>
      </trkpt>
      <trkpt lat="45.55394" lon="5.95408">
        <ele>287.704</ele>
        <time>2019-10-07T08:00:52Z</time>
      </trkpt>
      <trkpt lat="45.55325" lon="5.95523">
        <ele>288.09</ele>
        <time>2019-10-07T08:01:25Z</time>
      </trkpt>
      <trkpt lat="45.55212" lon="5.95642">
        <ele>291.027</ele>
        <time>2019-10-07T08:01:55Z</time>
      </trkpt>
      <trkpt lat="45.551" lon="5.95782">
        <ele>289.811</ele>
        <time>2019-10-07T08:02:25Z</time>
      </trkpt>
      <trkpt lat="45.54953" lon="5.95854">
        <ele>294.407</ele>
        <time>2019-10-07T08:02:55Z</time>
      </trkpt>
      <trkpt lat="45.54829" lon="5.95895">
        <ele>298.313</ele>
        <time>2019-10-07T08:03:25Z</time>
      </trkpt>
      <trkpt lat="45.54674" lon="5.95986">
        <ele>294.799</ele>
        <time>2019-10-07T08:03:55Z</time>
      </trkpt>
      <trkpt lat="45.54552" lon="5.96061">
        <ele>297.354</ele>
        <time>2019-10-07T08:04:25Z</time>
      </trkpt>
      <trkpt lat="45.54418" lon="5.96133">
        <ele>295.619</ele>
        <time>2019-10-07T08:04:55Z</time>
      </trkpt>
      <trkpt lat="45.54274" lon="5.96179">
        <ele>296.364</ele>
        <time>2019-10-07T08:05:28Z</time>
      </trkpt>
      <trkpt lat="45.54158" lon="5.96249">
        <ele>297.385</ele>
        <time>2019-10-07T08:05:58Z</time>
      </trkpt>
      <trkpt lat="45.54039" lon="5.96329">
        <ele>298.051</ele>
        <time>2019-10-07T08:06:28Z</time>
      </trkpt>
      <trkpt lat="45.53925" lon="5.96407">
        <ele>299.545</ele>
        <time>2019-10-07T08:06:58Z</time>
      </trkpt>
      <trkpt lat="45.53801" lon="5.96481">
        <ele>301.772</ele>
        <time>2019-10-07T08:07:28Z</time>
      </trkpt>
      <trkpt lat="45.53679" lon="5.96552">
        <ele>304.898</ele>
        <time>2019-10-07T08:07:58Z</time>
      </trkpt>
      <trkpt lat="45.53671" lon="5.96668">
        <ele>310.448</ele>
        <time>2019-10-07T08:08:28Z</time>
      </trkpt>
      <trkpt lat="45.53708" lon="5.96738">
        <ele>314.232</ele>
        <time>2019-10-07T08:09:01Z</time>
      </trkpt>
      <trkpt lat="45.53698" lon="5.96831">
        <ele>310.736</ele>
        <time>2019-10-07T08:09:31Z</time>
      </trkpt>
      <trkpt lat="45.53649" lon="5.96883">
        <ele>305.185</ele>
        <time>2019-10-07T08:10:01Z</time>
      </trkpt>
      <trkpt lat="45.53538" lon="5.96954">
        <ele>308.568</ele>
        <time>2019-10-07T08:10:31Z</time>
      </trkpt>
      <trkpt lat="45.53444" lon="5.97018">
        <ele>312.81</ele>
        <time>2019-10-07T08:11:01Z</time>
      </trkpt>
      <trkpt lat="45.53312" lon="5.97101">
        <ele>309.345</ele>
        <time>2019-10-07T08:11:31Z</time>
      </trkpt>
      <trkpt lat="45.53205" lon="5.97172">
        <ele>310.523</ele>
        <time>2019-10-07T08:12:01Z</time>
      </trkpt>
      <trkpt lat="45.53059" lon="5.9727">
        <ele>307.486</ele>
        <time>2019-10-07T08:12:31Z</time>
      </trkpt>
      <trkpt lat="45.52915" lon="5.97469">
        <ele>305.765</ele>
        <time>2019-10-07T08:13:04Z</time>
      </trkpt>
      <trkpt lat="45.5281" lon="5.97548">
        <ele>311.505</ele>
        <time>2019-10-07T08:13:34Z</time>
      </trkpt>
      <trkpt lat="45.5272" lon="5.97647">
        <ele>312.822</ele>
        <time>2019-10-07T08:14:04Z</time>
      </trkpt>
      <trkpt lat="45.52632" lon="5.97759">
        <ele>313.19</ele>
        <time>2019-10-07T08:14:34Z</time>
      </trkpt>
      <trkpt lat="45.52544" lon="5.9786">
        <ele>318.818</ele>
        <time>2019-10-07T08:15:04Z</time>
      </trkpt>
      <trkpt lat="45.52432" lon="5.97963">
        <ele>317.217</ele>
        <time>2019-10-07T08:15:34Z</time>
      </trkpt>
      <trkpt lat="45.52297" lon="5.98108">
        <ele>313.655</ele>
        <time>2019-10-07T08:16:04Z</time>
      </trkpt>
      <trkpt lat="45.52136" lon="5.98031">
        <ele>311.718</ele>
        <time>2019-10-07T08:16:37Z</time>
      </trkpt>
      <trkpt lat="45.52017" lon="5.98058">
        <ele>311.417</ele>
        <time>2019-10-07T08:17:07Z</time>
      </trkpt>
      <trkpt lat="45.52069" lon="5.97933">
        <ele>312.984</ele>
        <time>2019-10-07T08:17:37Z</time>
      </trkpt>
      <trkpt lat="45.51976" lon="5.97803">
        <ele>315.643</ele>
        <time>2019-10-07T08:18:07Z</time>
      </trkpt>
      <trkpt lat="45.51882" lon="5.97811">
        <ele>316.171</ele>
        <time>2019-10-07T08:18:37Z</time>
      </trkpt>
      <trkpt lat="45.51809" lon="5.9776">
        <ele>319.865</ele>
        <time>2019-10-07T08:19:07Z</time>
      </trkpt>
      <trkpt lat="45.51703" lon="5.97733">
        <ele>326.303</ele>
        <time>2019-10-07T08:19:37Z</time>
      </trkpt>
      <trkpt lat="45.5161" lon="5.9777">
        <ele>333.04</ele>
        <time>2019-10-07T08:20:07Z</time>
      </trkpt>
      <trkpt lat="45.51507" lon="5.97818">
        <ele>328.63</ele>
        <time>2019-10-07T08:20:40Z</time>
      </trkpt>
      <trkpt lat="45.51412" lon="5.97849">
        <ele>328.04</ele>
        <time>2019-10-07T08:21:13Z</time>
      </trkpt>
      <trkpt lat="45.51331" lon="5.97814">
        <ele>329.131</ele>
        <time>2019-10-07T08:22:22Z</time>
      </trkpt>
      <trkpt lat="45.51221" lon="5.97799">
        <ele>329.235</ele>
        <time>2019-10-07T08:22:52Z</time>
      </trkpt>
      <trkpt lat="45.51161" lon="5.9788">
        <ele>328.387</ele>
        <time>2019-10-07T08:23:22Z</time>
      </trkpt>
      <trkpt lat="45.51139" lon="5.97982">
        <ele>336.897</ele>
        <time>2019-10-07T08:23:52Z</time>
      </trkpt>
      <trkpt lat="45.51034" lon="5.98056">
        <ele>338.066</ele>
        <time>2019-10-07T08:24:22Z</time>
      </trkpt>
      <trkpt lat="45.51017" lon="5.98218">
        <ele>337.368</ele>
        <time>2019-10-07T08:24:55Z</time>
      </trkpt>
      <trkpt lat="45.50948" lon="5.98291">
        <ele>340.137</ele>
        <time>2019-10-07T08:25:25Z</time>
      </trkpt>
      <trkpt lat="45.50879" lon="5.98347">
        <ele>338.597</ele>
        <time>2019-10-07T08:26:01Z</time>
      </trkpt>
      <trkpt lat="45.50875" lon="5.98351">
        <ele>338.078</ele>
        <time>2019-10-07T08:28:55Z</time>
      </trkpt>
      <trkpt lat="45.50873" lon="5.98348">
        <ele>337.93</ele>
        <time>2019-10-07T08:32:40Z</time>
      </trkpt>
      <trkpt lat="45.5076" lon="5.98451">
        <ele>326.859</ele>
        <time>2019-10-07T08:33:10Z</time>
      </trkpt>
      <trkpt lat="45.50574" lon="5.98612">
        <ele>316.874</ele>
        <time>2019-10-07T08:33:40Z</time>
      </trkpt>
      <trkpt lat="45.50374" lon="5.98789">
        <ele>308.96</ele>
        <time>2019-10-07T08:34:10Z</time>
      </trkpt>
      <trkpt lat="45.50208" lon="5.98879">
        <ele>310.765</ele>
        <time>2019-10-07T08:34:43Z</time>
      </trkpt>
      <trkpt lat="45.50112" lon="5.98675">
        <ele>303.334</ele>
        <time>2019-10-07T08:35:13Z</time>
      </trkpt>
      <trkpt lat="45.49985" lon="5.98742">
        <ele>303.498</ele>
        <time>2019-10-07T08:35:43Z</time>
      </trkpt>
      <trkpt lat="45.49876" lon="5.98822">
        <ele>306.831</ele>
        <time>2019-10-07T08:36:13Z</time>
      </trkpt>
      <trkpt lat="45.49735" lon="5.98918">
        <ele>306.434</ele>
        <time>2019-10-07T08:36:43Z</time>
      </trkpt>
      <trkpt lat="45.49565" lon="5.9903">
        <ele>297.562</ele>
        <time>2019-10-07T08:37:13Z</time>
      </trkpt>
      <trkpt lat="45.49488" lon="5.98913">
        <ele>297.653</ele>
        <time>2019-10-07T08:37:43Z</time>
      </trkpt>
      <trkpt lat="45.49403" lon="5.98862">
        <ele>302.394</ele>
        <time>2019-10-07T08:38:16Z</time>
      </trkpt>
      <trkpt lat="45.49311" lon="5.98727">
        <ele>302.943</ele>
        <time>2019-10-07T08:38:46Z</time>
      </trkpt>
      <trkpt lat="45.49219" lon="5.98618">
        <ele>303.068</ele>
        <time>2019-10-07T08:39:16Z</time>
      </trkpt>
      <trkpt lat="45.49163" lon="5.98532">
        <ele>306.056</ele>
        <time>2019-10-07T08:39:49Z</time>
      </trkpt>
      <trkpt lat="45.49151" lon="5.98387">
        <ele>307.168</ele>
        <time>2019-10-07T08:40:19Z</time>
      </trkpt>
      <trkpt lat="45.4901" lon="5.98468">
        <ele>294.806</ele>
        <time>2019-10-07T08:40:49Z</time>
      </trkpt>
      <trkpt lat="45.48801" lon="5.98462">
        <ele>285.72</ele>
        <time>2019-10-07T08:41:19Z</time>
      </trkpt>
      <trkpt lat="45.48631" lon="5.98341">
        <ele>284.666</ele>
        <time>2019-10-07T08:41:49Z</time>
      </trkpt>
      <trkpt lat="45.48432" lon="5.98252">
        <ele>276.234</ele>
        <time>2019-10-07T08:42:22Z</time>
      </trkpt>
      <trkpt lat="45.48213" lon="5.98257">
        <ele>267.864</ele>
        <time>2019-10-07T08:42:52Z</time>
      </trkpt>
      <trkpt lat="45.48044" lon="5.98182">
        <ele>263.439</ele>
        <time>2019-10-07T08:43:22Z</time>
      </trkpt>
      <trkpt lat="45.47895" lon="5.98166">
        <ele>267.377</ele>
        <time>2019-10-07T08:43:52Z</time>
      </trkpt>
      <trkpt lat="45.47746" lon="5.98146">
        <ele>268.957</ele>
        <time>2019-10-07T08:44:22Z</time>
      </trkpt>
      <trkpt lat="45.47643" lon="5.98174">
        <ele>272.289</ele>
        <time>2019-10-07T08:44:52Z</time>
      </trkpt>
      <trkpt lat="45.47558" lon="5.9822">
        <ele>279.604</ele>
        <time>2019-10-07T08:45:22Z</time>
      </trkpt>
      <trkpt lat="45.47473" lon="5.98369">
        <ele>287.355</ele>
        <time>2019-10-07T08:45:55Z</time>
      </trkpt>
      <trkpt lat="45.47331" lon="5.98511">
        <ele>274.069</ele>
        <time>2019-10-07T08:46:25Z</time>
      </trkpt>
      <trkpt lat="45.47177" lon="5.98645">
        <ele>266.102</ele>
        <time>2019-10-07T08:46:55Z</time>
      </trkpt>
      <trkpt lat="45.47037" lon="5.98696">
        <ele>266.641</ele>
        <time>2019-10-07T08:47:25Z</time>
      </trkpt>
      <trkpt lat="45.46948" lon="5.98792">
        <ele>270.883</ele>
        <time>2019-10-07T08:47:55Z</time>
      </trkpt>
      <trkpt lat="45.46869" lon="5.98899">
        <ele>273.418</ele>
        <time>2019-10-07T08:48:25Z</time>
      </trkpt>
      <trkpt lat="45.46796" lon="5.98956">
        <ele>278.054</ele>
        <time>2019-10-07T08:48:55Z</time>
      </trkpt>
      <trkpt lat="45.4673" lon="5.98971">
        <ele>280.75</ele>
        <time>2019-10-07T08:58:58Z</time>
      </trkpt>
      <trkpt lat="45.46652" lon="5.9899">
        <ele>286.655</ele>
        <time>2019-10-07T08:59:28Z</time>
      </trkpt>
      <trkpt lat="45.46567" lon="5.99005">
        <ele>293.27</ele>
        <time>2019-10-07T08:59:58Z</time>
      </trkpt>
      <trkpt lat="45.46477" lon="5.99028">
        <ele>302.211</ele>
        <time>2019-10-07T09:00:28Z</time>
      </trkpt>
      <trkpt lat="45.46391" lon="5.99035">
        <ele>300.787</ele>
        <time>2019-10-07T09:00:58Z</time>
      </trkpt>
      <trkpt lat="45.4629" lon="5.99029">
        <ele>302.996</ele>
        <time>2019-10-07T09:01:28Z</time>
      </trkpt>
      <trkpt lat="45.46201" lon="5.98966">
        <ele>296.623</ele>
        <time>2019-10-07T09:01:58Z</time>
      </trkpt>
      <trkpt lat="45.4612" lon="5.99026">
        <ele>303.528</ele>
        <time>2019-10-07T09:02:28Z</time>
      </trkpt>
      <trkpt lat="45.46046" lon="5.99045">
        <ele>307.237</ele>
        <time>2019-10-07T09:03:01Z</time>
      </trkpt>
      <trkpt lat="45.45972" lon="5.9906">
        <ele>305.189</ele>
        <time>2019-10-07T09:03:31Z</time>
      </trkpt>
      <trkpt lat="45.45892" lon="5.99076">
        <ele>311.86</ele>
        <time>2019-10-07T09:04:01Z</time>
      </trkpt>
      <trkpt lat="45.45818" lon="5.99092">
        <ele>315.875</ele>
        <time>2019-10-07T09:04:31Z</time>
      </trkpt>
      <trkpt lat="45.45748" lon="5.9911">
        <ele>318.329</ele>
        <time>2019-10-07T09:05:01Z</time>
      </trkpt>
      <trkpt lat="45.45675" lon="5.99123">
        <ele>317.982</ele>
        <time>2019-10-07T09:05:31Z</time>
      </trkpt>
      <trkpt lat="45.45593" lon="5.99141">
        <ele>319.037</ele>
        <time>2019-10-07T09:06:01Z</time>
      </trkpt>
      <trkpt lat="45.45504" lon="5.9916">
        <ele>324.246</ele>
        <time>2019-10-07T09:06:34Z</time>
      </trkpt>
      <trkpt lat="45.45425" lon="5.99176">
        <ele>324.33</ele>
        <time>2019-10-07T09:07:04Z</time>
      </trkpt>
      <trkpt lat="45.45333" lon="5.99196">
        <ele>330.792</ele>
        <time>2019-10-07T09:07:34Z</time>
      </trkpt>
      <trkpt lat="45.45213" lon="5.99223">
        <ele>333.346</ele>
        <time>2019-10-07T09:08:04Z</time>
      </trkpt>
      <trkpt lat="45.45101" lon="5.9925">
        <ele>339.869</ele>
        <time>2019-10-07T09:08:34Z</time>
      </trkpt>
      <trkpt lat="45.45009" lon="5.99248">
        <ele>339.787</ele>
        <time>2019-10-07T09:09:04Z</time>
      </trkpt>
      <trkpt lat="45.44927" lon="5.99195">
        <ele>339.443</ele>
        <time>2019-10-07T09:09:34Z</time>
      </trkpt>
      <trkpt lat="45.44827" lon="5.99085">
        <ele>336.907</ele>
        <time>2019-10-07T09:10:04Z</time>
      </trkpt>
      <trkpt lat="45.44702" lon="5.98945">
        <ele>336.277</ele>
        <time>2019-10-07T09:10:37Z</time>
      </trkpt>
      <trkpt lat="45.4459" lon="5.98823">
        <ele>335.971</ele>
        <time>2019-10-07T09:11:07Z</time>
      </trkpt>
      <trkpt lat="45.44472" lon="5.98692">
        <ele>336.661</ele>
        <time>2019-10-07T09:11:37Z</time>
      </trkpt>
      <trkpt lat="45.44345" lon="5.98575">
        <ele>337.34</ele>
        <time>2019-10-07T09:12:07Z</time>
      </trkpt>
      <trkpt lat="45.44188" lon="5.98522">
        <ele>339.474</ele>
        <time>2019-10-07T09:12:37Z</time>
      </trkpt>
      <trkpt lat="45.44035" lon="5.98468">
        <ele>344.784</ele>
        <time>2019-10-07T09:13:07Z</time>
      </trkpt>
      <trkpt lat="45.43902" lon="5.98419">
        <ele>346.114</ele>
        <time>2019-10-07T09:13:37Z</time>
      </trkpt>
      <trkpt lat="45.43771" lon="5.98375">
        <ele>349.473</ele>
        <time>2019-10-07T09:14:10Z</time>
      </trkpt>
      <trkpt lat="45.43644" lon="5.98331">
        <ele>351.557</ele>
        <time>2019-10-07T09:14:40Z</time>
      </trkpt>
      <trkpt lat="45.43446" lon="5.98258">
        <ele>342.13</ele>
        <time>2019-10-07T09:15:10Z</time>
      </trkpt>
      <trkpt lat="45.43197" lon="5.9817">
        <ele>330.541</ele>
        <time>2019-10-07T09:15:40Z</time>
      </trkpt>
      <trkpt lat="45.42945" lon="5.98157">
        <ele>329.575</ele>
        <time>2019-10-07T09:16:10Z</time>
      </trkpt>
      <trkpt lat="45.42727" lon="5.98161">
        <ele>324.994</ele>
        <time>2019-10-07T09:16:40Z</time>
      </trkpt>
      <trkpt lat="45.42582" lon="5.98165">
        <ele>329.185</ele>
        <time>2019-10-07T09:17:10Z</time>
      </trkpt>
      <trkpt lat="45.42413" lon="5.98169">
        <ele>325.963</ele>
        <time>2019-10-07T09:17:40Z</time>
      </trkpt>
      <trkpt lat="45.4215" lon="5.98266">
        <ele>309.704</ele>
        <time>2019-10-07T09:18:13Z</time>
      </trkpt>
      <trkpt lat="45.42086" lon="5.98252">
        <ele>280.518</ele>
        <time>2019-10-07T09:18:43Z</time>
      </trkpt>
      <trkpt lat="45.41754" lon="5.98205">
        <ele>253.348</ele>
        <time>2019-10-07T09:19:13Z</time>
      </trkpt>
      <trkpt lat="45.41493" lon="5.98146">
        <ele>253.082</ele>
        <time>2019-10-07T09:19:43Z</time>
      </trkpt>
      <trkpt lat="45.41315" lon="5.98108">
        <ele>255.025</ele>
        <time>2019-10-07T09:20:13Z</time>
      </trkpt>
      <trkpt lat="45.41183" lon="5.98076">
        <ele>254.874</ele>
        <time>2019-10-07T09:20:43Z</time>
      </trkpt>
      <trkpt lat="45.41046" lon="5.98008">
        <ele>255.656</ele>
        <time>2019-10-07T09:21:13Z</time>
      </trkpt>
      <trkpt lat="45.40947" lon="5.97972">
        <ele>261.419</ele>
        <time>2019-10-07T09:21:46Z</time>
      </trkpt>
      <trkpt lat="45.40897" lon="5.98177">
        <ele>257.88</ele>
        <time>2019-10-07T09:22:16Z</time>
      </trkpt>
      <trkpt lat="45.40847" lon="5.98337">
        <ele>250.722</ele>
        <time>2019-10-07T09:22:46Z</time>
      </trkpt>
      <trkpt lat="45.4079" lon="5.9851">
        <ele>250.657</ele>
        <time>2019-10-07T09:23:16Z</time>
      </trkpt>
      <trkpt lat="45.40737" lon="5.98661">
        <ele>249.113</ele>
        <time>2019-10-07T09:23:46Z</time>
      </trkpt>
      <trkpt lat="45.40598" lon="5.98604">
        <ele>247.089</ele>
        <time>2019-10-07T09:24:16Z</time>
      </trkpt>
      <trkpt lat="45.40463" lon="5.9853">
        <ele>254.38</ele>
        <time>2019-10-07T09:24:46Z</time>
      </trkpt>
      <trkpt lat="45.40332" lon="5.98457">
        <ele>251.931</ele>
        <time>2019-10-07T09:25:16Z</time>
      </trkpt>
      <trkpt lat="45.40193" lon="5.98402">
        <ele>252.289</ele>
        <time>2019-10-07T09:25:49Z</time>
      </trkpt>
      <trkpt lat="45.40033" lon="5.98291">
        <ele>249.713</ele>
        <time>2019-10-07T09:26:19Z</time>
      </trkpt>
      <trkpt lat="45.39881" lon="5.98197">
        <ele>244.373</ele>
        <time>2019-10-07T09:26:49Z</time>
      </trkpt>
      <trkpt lat="45.39731" lon="5.9812">
        <ele>247.008</ele>
        <time>2019-10-07T09:27:19Z</time>
      </trkpt>
      <trkpt lat="45.39596" lon="5.98046">
        <ele>242.929</ele>
        <time>2019-10-07T09:27:49Z</time>
      </trkpt>
      <trkpt lat="45.39439" lon="5.9797">
        <ele>249.418</ele>
        <time>2019-10-07T09:28:19Z</time>
      </trkpt>
      <trkpt lat="45.39297" lon="5.97891">
        <ele>241.717</ele>
        <time>2019-10-07T09:28:49Z</time>
      </trkpt>
      <trkpt lat="45.39147" lon="5.97812">
        <ele>245.481</ele>
        <time>2019-10-07T09:29:22Z</time>
      </trkpt>
      <trkpt lat="45.39005" lon="5.9773">
        <ele>242.834</ele>
        <time>2019-10-07T09:29:52Z</time>
      </trkpt>
      <trkpt lat="45.3887" lon="5.97645">
        <ele>243.242</ele>
        <time>2019-10-07T09:30:22Z</time>
      </trkpt>
      <trkpt lat="45.38729" lon="5.97571">
        <ele>242.893</ele>
        <time>2019-10-07T09:30:52Z</time>
      </trkpt>
      <trkpt lat="45.38607" lon="5.9751">
        <ele>243.315</ele>
        <time>2019-10-07T09:31:22Z</time>
      </trkpt>
      <trkpt lat="45.38452" lon="5.97427">
        <ele>244.47</ele>
        <time>2019-10-07T09:31:52Z</time>
      </trkpt>
      <trkpt lat="45.38324" lon="5.97355">
        <ele>246.08</ele>
        <time>2019-10-07T09:32:22Z</time>
      </trkpt>
      <trkpt lat="45.38199" lon="5.97305">
        <ele>248.31</ele>
        <time>2019-10-07T09:32:52Z</time>
      </trkpt>
      <trkpt lat="45.38073" lon="5.97313">
        <ele>249.749</ele>
        <time>2019-10-07T09:33:25Z</time>
      </trkpt>
      <trkpt lat="45.37952" lon="5.97293">
        <ele>246.99</ele>
        <time>2019-10-07T09:33:55Z</time>
      </trkpt>
      <trkpt lat="45.37829" lon="5.9729">
        <ele>252.6</ele>
        <time>2019-10-07T09:34:25Z</time>
      </trkpt>
      <trkpt lat="45.37671" lon="5.97259">
        <ele>254.372</ele>
        <time>2019-10-07T09:34:55Z</time>
      </trkpt>
      <trkpt lat="45.37533" lon="5.97239">
        <ele>254.34</ele>
        <time>2019-10-07T09:35:25Z</time>
      </trkpt>
      <trkpt lat="45.37341" lon="5.97174">
        <ele>246.35</ele>
        <time>2019-10-07T09:35:55Z</time>
      </trkpt>
      <trkpt lat="45.37159" lon="5.97045">
        <ele>242.237</ele>
        <time>2019-10-07T09:36:25Z</time>
      </trkpt>
      <trkpt lat="45.3701" lon="5.97021">
        <ele>241.522</ele>
        <time>2019-10-07T09:36:58Z</time>
      </trkpt>
      <trkpt lat="45.3692" lon="5.96983">
        <ele>246.657</ele>
        <time>2019-10-07T09:37:28Z</time>
      </trkpt>
      <trkpt lat="45.36833" lon="5.96925">
        <ele>249.998</ele>
        <time>2019-10-07T09:37:58Z</time>
      </trkpt>
      <trkpt lat="45.3675" lon="5.96866">
        <ele>251.918</ele>
        <time>2019-10-07T09:38:28Z</time>
      </trkpt>
      <trkpt lat="45.36628" lon="5.96814">
        <ele>251.395</ele>
        <time>2019-10-07T09:38:58Z</time>
      </trkpt>
      <trkpt lat="45.36502" lon="5.96782">
        <ele>249.467</ele>
        <time>2019-10-07T09:39:28Z</time>
      </trkpt>
      <trkpt lat="45.36376" lon="5.96744">
        <ele>252.475</ele>
        <time>2019-10-07T09:39:58Z</time>
      </trkpt>
      <trkpt lat="45.36225" lon="5.96739">
        <ele>249.832</ele>
        <time>2019-10-07T09:40:28Z</time>
      </trkpt>
      <trkpt lat="45.36117" lon="5.96747">
        <ele>244.441</ele>
        <time>2019-10-07T09:41:31Z</time>
      </trkpt>
      <trkpt lat="45.36067" lon="5.96744">
        <ele>241.513</ele>
        <time>2019-10-07T09:46:22Z</time>
      </trkpt>
      <trkpt lat="45.35889" lon="5.96755">
        <ele>240.669</ele>
        <time>2019-10-07T09:46:52Z</time>
      </trkpt>
      <trkpt lat="45.35731" lon="5.96726">
        <ele>240.066</ele>
        <time>2019-10-07T09:47:22Z</time>
      </trkpt>
      <trkpt lat="45.3557" lon="5.96706">
        <ele>234.753</ele>
        <time>2019-10-07T09:47:52Z</time>
      </trkpt>
      <trkpt lat="45.35413" lon="5.96675">
        <ele>236.383</ele>
        <time>2019-10-07T09:48:22Z</time>
      </trkpt>
      <trkpt lat="45.35269" lon="5.96625">
        <ele>238.658</ele>
        <time>2019-10-07T09:48:52Z</time>
      </trkpt>
      <trkpt lat="45.35153" lon="5.96505">
        <ele>239.308</ele>
        <time>2019-10-07T09:49:25Z</time>
      </trkpt>
      <trkpt lat="45.35174" lon="5.96323">
        <ele>231.801</ele>
        <time>2019-10-07T09:49:55Z</time>
      </trkpt>
      <trkpt lat="45.35059" lon="5.96263">
        <ele>234.488</ele>
        <time>2019-10-07T09:50:25Z</time>
      </trkpt>
      <trkpt lat="45.34919" lon="5.96303">
        <ele>235.13</ele>
        <time>2019-10-07T09:50:55Z</time>
      </trkpt>
      <trkpt lat="45.34776" lon="5.96303">
        <ele>237.851</ele>
        <time>2019-10-07T09:51:25Z</time>
      </trkpt>
      <trkpt lat="45.34641" lon="5.96215">
        <ele>238.129</ele>
        <time>2019-10-07T09:51:55Z</time>
      </trkpt>
      <trkpt lat="45.34489" lon="5.96122">
        <ele>233.581</ele>
        <time>2019-10-07T09:52:25Z</time>
      </trkpt>
      <trkpt lat="45.3434" lon="5.96012">
        <ele>235.321</ele>
        <time>2019-10-07T09:52:58Z</time>
      </trkpt>
      <trkpt lat="45.34189" lon="5.95926">
        <ele>234.735</ele>
        <time>2019-10-07T09:53:28Z</time>
      </trkpt>
      <trkpt lat="45.34035" lon="5.95836">
        <ele>234.821</ele>
        <time>2019-10-07T09:53:58Z</time>
      </trkpt>
      <trkpt lat="45.33872" lon="5.95731">
        <ele>234.286</ele>
        <time>2019-10-07T09:54:28Z</time>
      </trkpt>
      <trkpt lat="45.33762" lon="5.95551">
        <ele>234.385</ele>
        <time>2019-10-07T09:54:58Z</time>
      </trkpt>
      <trkpt lat="45.33644" lon="5.95367">
        <ele>234.27</ele>
        <time>2019-10-07T09:55:28Z</time>
      </trkpt>
      <trkpt lat="45.33531" lon="5.95183">
        <ele>233.378</ele>
        <time>2019-10-07T09:55:58Z</time>
      </trkpt>
      <trkpt lat="45.33429" lon="5.94987">
        <ele>233.517</ele>
        <time>2019-10-07T09:56:28Z</time>
      </trkpt>
      <trkpt lat="45.33273" lon="5.94811">
        <ele>231.268</ele>
        <time>2019-10-07T09:57:01Z</time>
      </trkpt>
      <trkpt lat="45.3317" lon="5.94608">
        <ele>230.619</ele>
        <time>2019-10-07T09:57:31Z</time>
      </trkpt>
      <trkpt lat="45.33092" lon="5.94373">
        <ele>231.427</ele>
        <time>2019-10-07T09:58:01Z</time>
      </trkpt>
      <trkpt lat="45.33093" lon="5.94179">
        <ele>233.735</ele>
        <time>2019-10-07T09:58:31Z</time>
      </trkpt>
      <trkpt lat="45.33037" lon="5.93969">
        <ele>232.421</ele>
        <time>2019-10-07T09:59:01Z</time>
      </trkpt>
      <trkpt lat="45.32982" lon="5.93785">
        <ele>234.282</ele>
        <time>2019-10-07T09:59:31Z</time>
      </trkpt>
      <trkpt lat="45.32897" lon="5.93748">
        <ele>238.966</ele>
        <time>2019-10-07T10:00:01Z</time>
      </trkpt>
      <trkpt lat="45.32813" lon="5.93725">
        <ele>242.879</ele>
        <time>2019-10-07T10:00:34Z</time>
      </trkpt>
      <trkpt lat="45.32727" lon="5.93704">
        <ele>246.404</ele>
        <time>2019-10-07T10:01:04Z</time>
      </trkpt>
      <trkpt lat="45.32642" lon="5.93772">
        <ele>246.972</ele>
        <time>2019-10-07T10:01:34Z</time>
      </trkpt>
      <trkpt lat="45.32483" lon="5.93885">
        <ele>235.395</ele>
        <time>2019-10-07T10:02:04Z</time>
      </trkpt>
      <trkpt lat="45.32385" lon="5.93768">
        <ele>237.123</ele>
        <time>2019-10-07T10:02:34Z</time>
      </trkpt>
      <trkpt lat="45.32297" lon="5.93641">
        <ele>238.475</ele>
        <time>2019-10-07T10:03:04Z</time>
      </trkpt>
      <trkpt lat="45.32215" lon="5.93526">
        <ele>242.809</ele>
        <time>2019-10-07T10:03:34Z</time>
      </trkpt>
      <trkpt lat="45.32153" lon="5.93416">
        <ele>243.703</ele>
        <time>2019-10-07T10:04:04Z</time>
      </trkpt>
      <trkpt lat="45.31996" lon="5.93217">
        <ele>236</ele>
        <time>2019-10-07T10:04:37Z</time>
      </trkpt>
      <trkpt lat="45.31841" lon="5.93137">
        <ele>232.18</ele>
        <time>2019-10-07T10:05:07Z</time>
      </trkpt>
      <trkpt lat="45.31781" lon="5.93002">
        <ele>237.334</ele>
        <time>2019-10-07T10:05:37Z</time>
      </trkpt>
      <trkpt lat="45.31729" lon="5.92901">
        <ele>242.426</ele>
        <time>2019-10-07T10:06:07Z</time>
      </trkpt>
      <trkpt lat="45.3168" lon="5.92801">
        <ele>245.037</ele>
        <time>2019-10-07T10:06:37Z</time>
      </trkpt>
      <trkpt lat="45.31628" lon="5.92693">
        <ele>249.416</ele>
        <time>2019-10-07T10:07:07Z</time>
      </trkpt>
      <trkpt lat="45.31593" lon="5.92592">
        <ele>251.745</ele>
        <time>2019-10-07T10:07:37Z</time>
      </trkpt>
      <trkpt lat="45.31502" lon="5.92801">
        <ele>245.798</ele>
        <time>2019-10-07T10:08:10Z</time>
      </trkpt>
      <trkpt lat="45.31401" lon="5.92942">
        <ele>237.188</ele>
        <time>2019-10-07T10:08:40Z</time>
      </trkpt>
      <trkpt lat="45.31299" lon="5.93149">
        <ele>229.632</ele>
        <time>2019-10-07T10:09:10Z</time>
      </trkpt>
      <trkpt lat="45.31172" lon="5.93111">
        <ele>228.837</ele>
        <time>2019-10-07T10:09:40Z</time>
      </trkpt>
      <trkpt lat="45.31071" lon="5.93034">
        <ele>232.348</ele>
        <time>2019-10-07T10:10:10Z</time>
      </trkpt>
      <trkpt lat="45.31025" lon="5.92906">
        <ele>235.16</ele>
        <time>2019-10-07T10:10:40Z</time>
      </trkpt>
      <trkpt lat="45.30918" lon="5.92887">
        <ele>234.389</ele>
        <time>2019-10-07T10:11:10Z</time>
      </trkpt>
      <trkpt lat="45.30774" lon="5.92906">
        <ele>234.497</ele>
        <time>2019-10-07T10:11:43Z</time>
      </trkpt>
      <trkpt lat="45.30613" lon="5.92754">
        <ele>229.678</ele>
        <time>2019-10-07T10:12:16Z</time>
      </trkpt>
      <trkpt lat="45.30587" lon="5.92548">
        <ele>224.038</ele>
        <time>2019-10-07T10:12:46Z</time>
      </trkpt>
      <trkpt lat="45.30553" lon="5.92358">
        <ele>225.564</ele>
        <time>2019-10-07T10:13:16Z</time>
      </trkpt>
      <trkpt lat="45.3054" lon="5.92185">
        <ele>226.524</ele>
        <time>2019-10-07T10:13:46Z</time>
      </trkpt>
      <trkpt lat="45.30469" lon="5.92009">
        <ele>221.352</ele>
        <time>2019-10-07T10:14:16Z</time>
      </trkpt>
      <trkpt lat="45.30501" lon="5.91846">
        <ele>226.015</ele>
        <time>2019-10-07T10:14:46Z</time>
      </trkpt>
      <trkpt lat="45.30543" lon="5.91668">
        <ele>226.963</ele>
        <time>2019-10-07T10:15:16Z</time>
      </trkpt>
      <trkpt lat="45.30401" lon="5.91495">
        <ele>223.919</ele>
        <time>2019-10-07T10:15:49Z</time>
      </trkpt>
      <trkpt lat="45.30263" lon="5.91363">
        <ele>220.192</ele>
        <time>2019-10-07T10:16:19Z</time>
      </trkpt>
      <trkpt lat="45.30126" lon="5.91227">
        <ele>224.615</ele>
        <time>2019-10-07T10:16:49Z</time>
      </trkpt>
      <trkpt lat="45.29984" lon="5.91091">
        <ele>228.085</ele>
        <time>2019-10-07T10:17:19Z</time>
      </trkpt>
      <trkpt lat="45.29818" lon="5.90996">
        <ele>226.585</ele>
        <time>2019-10-07T10:17:49Z</time>
      </trkpt>
      <trkpt lat="45.29653" lon="5.90932">
        <ele>223.048</ele>
        <time>2019-10-07T10:18:19Z</time>
      </trkpt>
      <trkpt lat="45.29494" lon="5.90867">
        <ele>225.221</ele>
        <time>2019-10-07T10:18:49Z</time>
      </trkpt>
      <trkpt lat="45.29336" lon="5.90794">
        <ele>223.797</ele>
        <time>2019-10-07T10:19:19Z</time>
      </trkpt>
      <trkpt lat="45.29163" lon="5.90816">
        <ele>222.438</ele>
        <time>2019-10-07T10:19:52Z</time>
      </trkpt>
      <trkpt lat="45.2901" lon="5.90878">
        <ele>224.213</ele>
        <time>2019-10-07T10:20:22Z</time>
      </trkpt>
      <trkpt lat="45.28862" lon="5.90798">
        <ele>224.939</ele>
        <time>2019-10-07T10:20:52Z</time>
      </trkpt>
      <trkpt lat="45.28705" lon="5.90686">
        <ele>224.034</ele>
        <time>2019-10-07T10:21:22Z</time>
      </trkpt>
      <trkpt lat="45.28542" lon="5.90564">
        <ele>223.298</ele>
        <time>2019-10-07T10:21:52Z</time>
      </trkpt>
      <trkpt lat="45.28499" lon="5.9038">
        <ele>217.854</ele>
        <time>2019-10-07T10:22:22Z</time>
      </trkpt>
      <trkpt lat="45.28469" lon="5.90142">
        <ele>218.641</ele>
        <time>2019-10-07T10:22:52Z</time>
      </trkpt>
      <trkpt lat="45.28444" lon="5.89885">
        <ele>219.142</ele>
        <time>2019-10-07T10:23:25Z</time>
      </trkpt>
      <trkpt lat="45.28373" lon="5.8992">
        <ele>222.48</ele>
        <time>2019-10-07T10:23:55Z</time>
      </trkpt>
      <trkpt lat="45.28256" lon="5.90027">
        <ele>222.771</ele>
        <time>2019-10-07T10:24:25Z</time>
      </trkpt>
      <trkpt lat="45.28136" lon="5.90135">
        <ele>222.563</ele>
        <time>2019-10-07T10:24:55Z</time>
      </trkpt>
      <trkpt lat="45.28035" lon="5.89984">
        <ele>220.611</ele>
        <time>2019-10-07T10:25:25Z</time>
      </trkpt>
      <trkpt lat="45.27879" lon="5.8985">
        <ele>223.087</ele>
        <time>2019-10-07T10:25:55Z</time>
      </trkpt>
      <trkpt lat="45.27724" lon="5.89686">
        <ele>223.928</ele>
        <time>2019-10-07T10:26:25Z</time>
      </trkpt>
      <trkpt lat="45.27625" lon="5.89624">
        <ele>225.103</ele>
        <time>2019-10-07T10:26:55Z</time>
      </trkpt>
      <trkpt lat="45.27503" lon="5.89672">
        <ele>224.146</ele>
        <time>2019-10-07T10:27:28Z</time>
      </trkpt>
      <trkpt lat="45.27379" lon="5.89526">
        <ele>222.185</ele>
        <time>2019-10-07T10:27:58Z</time>
      </trkpt>
      <trkpt lat="45.27285" lon="5.89387">
        <ele>220.727</ele>
        <time>2019-10-07T10:28:28Z</time>
      </trkpt>
      <trkpt lat="45.27215" lon="5.89368">
        <ele>223.21</ele>
        <time>2019-10-07T10:28:58Z</time>
      </trkpt>
      <trkpt lat="45.2723" lon="5.89341">
        <ele>228.048</ele>
        <time>2019-10-07T10:34:34Z</time>
      </trkpt>
      <trkpt lat="45.27235" lon="5.89336">
        <ele>227.536</ele>
        <time>2019-10-07T10:35:34Z</time>
      </trkpt>
      <trkpt lat="45.27232" lon="5.89342">
        <ele>228.72</ele>
        <time>2019-10-07T10:37:19Z</time>
      </trkpt>
      <trkpt lat="45.2723" lon="5.89341">
        <ele>229.188</ele>
        <time>2019-10-07T10:38:16Z</time>
      </trkpt>
      <trkpt lat="45.27241" lon="5.89315">
        <ele>229.224</ele>
        <time>2019-10-07T10:42:22Z</time>
      </trkpt>
      <trkpt lat="45.27228" lon="5.893">
        <ele>229.44</ele>
        <time>2019-10-07T10:45:28Z</time>
      </trkpt>
      <trkpt lat="45.27226" lon="5.89301">
        <ele>228.242</ele>
        <time>2019-10-07T10:58:34Z</time>
      </trkpt>
      <trkpt lat="45.27222" lon="5.89302">
        <ele>228.776</ele>
        <time>2019-10-07T11:24:34Z</time>
      </trkpt>
      <trkpt lat="45.2715" lon="5.89247">
        <ele>232.573</ele>
        <time>2019-10-07T11:28:19Z</time>
      </trkpt>
      <trkpt lat="45.27063" lon="5.89156">
        <ele>232.176</ele>
        <time>2019-10-07T11:28:49Z</time>
      </trkpt>
      <trkpt lat="45.27007" lon="5.89131">
        <ele>227.706</ele>
        <time>2019-10-07T11:29:25Z</time>
      </trkpt>
      <trkpt lat="45.26983" lon="5.89243">
        <ele>232.93</ele>
        <time>2019-10-07T11:29:58Z</time>
      </trkpt>
      <trkpt lat="45.26972" lon="5.89264">
        <ele>228.614</ele>
        <time>2019-10-07T11:33:31Z</time>
      </trkpt>
      <trkpt lat="45.27" lon="5.89145">
        <ele>226.676</ele>
        <time>2019-10-07T11:34:01Z</time>
      </trkpt>
      <trkpt lat="45.2692" lon="5.89027">
        <ele>230.545</ele>
        <time>2019-10-07T11:34:31Z</time>
      </trkpt>
      <trkpt lat="45.26838" lon="5.88868">
        <ele>226.772</ele>
        <time>2019-10-07T11:35:01Z</time>
      </trkpt>
      <trkpt lat="45.26788" lon="5.88725">
        <ele>228.163</ele>
        <time>2019-10-07T11:35:31Z</time>
      </trkpt>
      <trkpt lat="45.26744" lon="5.88624">
        <ele>226.641</ele>
        <time>2019-10-07T11:38:55Z</time>
      </trkpt>
      <trkpt lat="45.26692" lon="5.88466">
        <ele>228.052</ele>
        <time>2019-10-07T11:39:28Z</time>
      </trkpt>
      <trkpt lat="45.26622" lon="5.8833">
        <ele>230.855</ele>
        <time>2019-10-07T11:39:58Z</time>
      </trkpt>
      <trkpt lat="45.26551" lon="5.88194">
        <ele>233.37</ele>
        <time>2019-10-07T11:40:28Z</time>
      </trkpt>
      <trkpt lat="45.26472" lon="5.88104">
        <ele>233.201</ele>
        <time>2019-10-07T11:40:58Z</time>
      </trkpt>
      <trkpt lat="45.26482" lon="5.88053">
        <ele>229.572</ele>
        <time>2019-10-07T11:41:31Z</time>
      </trkpt>
      <trkpt lat="45.26497" lon="5.88134">
        <ele>237.099</ele>
        <time>2019-10-07T11:42:01Z</time>
      </trkpt>
      <trkpt lat="45.26456" lon="5.88042">
        <ele>237.593</ele>
        <time>2019-10-07T11:42:31Z</time>
      </trkpt>
      <trkpt lat="45.26401" lon="5.87862">
        <ele>233.036</ele>
        <time>2019-10-07T11:43:04Z</time>
      </trkpt>
      <trkpt lat="45.26393" lon="5.8772">
        <ele>232.508</ele>
        <time>2019-10-07T11:43:34Z</time>
      </trkpt>
      <trkpt lat="45.26326" lon="5.87539">
        <ele>234.076</ele>
        <time>2019-10-07T11:44:04Z</time>
      </trkpt>
      <trkpt lat="45.26281" lon="5.87393">
        <ele>239.395</ele>
        <time>2019-10-07T11:44:34Z</time>
      </trkpt>
      <trkpt lat="45.26202" lon="5.87277">
        <ele>239.281</ele>
        <time>2019-10-07T11:45:04Z</time>
      </trkpt>
      <trkpt lat="45.26122" lon="5.87164">
        <ele>240.781</ele>
        <time>2019-10-07T11:45:34Z</time>
      </trkpt>
      <trkpt lat="45.26054" lon="5.87042">
        <ele>245.899</ele>
        <time>2019-10-07T11:46:04Z</time>
      </trkpt>
      <trkpt lat="45.26063" lon="5.86926">
        <ele>249.742</ele>
        <time>2019-10-07T11:46:34Z</time>
      </trkpt>
      <trkpt lat="45.26023" lon="5.86816">
        <ele>253.172</ele>
        <time>2019-10-07T11:47:07Z</time>
      </trkpt>
      <trkpt lat="45.25914" lon="5.86954">
        <ele>246.926</ele>
        <time>2019-10-07T11:47:37Z</time>
      </trkpt>
      <trkpt lat="45.25716" lon="5.87028">
        <ele>228.155</ele>
        <time>2019-10-07T11:48:07Z</time>
      </trkpt>
      <trkpt lat="45.25497" lon="5.87082">
        <ele>217.483</ele>
        <time>2019-10-07T11:48:37Z</time>
      </trkpt>
      <trkpt lat="45.25338" lon="5.87087">
        <ele>218.371</ele>
        <time>2019-10-07T11:49:07Z</time>
      </trkpt>
      <trkpt lat="45.25232" lon="5.87215">
        <ele>220.321</ele>
        <time>2019-10-07T11:49:37Z</time>
      </trkpt>
      <trkpt lat="45.25137" lon="5.87318">
        <ele>223.169</ele>
        <time>2019-10-07T11:50:07Z</time>
      </trkpt>
      <trkpt lat="45.25081" lon="5.87385">
        <ele>228.327</ele>
        <time>2019-10-07T11:50:40Z</time>
      </trkpt>
      <trkpt lat="45.25012" lon="5.87463">
        <ele>238.081</ele>
        <time>2019-10-07T11:51:10Z</time>
      </trkpt>
      <trkpt lat="45.24823" lon="5.87514">
        <ele>227.379</ele>
        <time>2019-10-07T11:51:40Z</time>
      </trkpt>
      <trkpt lat="45.24905" lon="5.87365">
        <ele>220.79</ele>
        <time>2019-10-07T11:52:10Z</time>
      </trkpt>
      <trkpt lat="45.2486" lon="5.87185">
        <ele>221.909</ele>
        <time>2019-10-07T11:52:40Z</time>
      </trkpt>
      <trkpt lat="45.24751" lon="5.86971">
        <ele>222.896</ele>
        <time>2019-10-07T11:53:10Z</time>
      </trkpt>
      <trkpt lat="45.24647" lon="5.86748">
        <ele>222.59</ele>
        <time>2019-10-07T11:53:40Z</time>
      </trkpt>
      <trkpt lat="45.24546" lon="5.86505">
        <ele>224.551</ele>
        <time>2019-10-07T11:54:10Z</time>
      </trkpt>
      <trkpt lat="45.24392" lon="5.86292">
        <ele>222.996</ele>
        <time>2019-10-07T11:54:43Z</time>
      </trkpt>
      <trkpt lat="45.24277" lon="5.86089">
        <ele>223.166</ele>
        <time>2019-10-07T11:55:13Z</time>
      </trkpt>
      <trkpt lat="45.24196" lon="5.85898">
        <ele>227.49</ele>
        <time>2019-10-07T11:55:43Z</time>
      </trkpt>
      <trkpt lat="45.24119" lon="5.85714">
        <ele>226.708</ele>
        <time>2019-10-07T11:56:13Z</time>
      </trkpt>
      <trkpt lat="45.2422" lon="5.8558">
        <ele>222.199</ele>
        <time>2019-10-07T11:56:43Z</time>
      </trkpt>
      <trkpt lat="45.24183" lon="5.85423">
        <ele>227.399</ele>
        <time>2019-10-07T11:57:13Z</time>
      </trkpt>
      <trkpt lat="45.24148" lon="5.85285">
        <ele>232.034</ele>
        <time>2019-10-07T11:57:43Z</time>
      </trkpt>
      <trkpt lat="45.24131" lon="5.85281">
        <ele>237.909</ele>
        <time>2019-10-07T11:58:19Z</time>
      </trkpt>
      <trkpt lat="45.24063" lon="5.85397">
        <ele>233.793</ele>
        <time>2019-10-07T11:58:49Z</time>
      </trkpt>
      <trkpt lat="45.23956" lon="5.85364">
        <ele>224.987</ele>
        <time>2019-10-07T11:59:19Z</time>
      </trkpt>
      <trkpt lat="45.23785" lon="5.85411">
        <ele>220.705</ele>
        <time>2019-10-07T11:59:49Z</time>
      </trkpt>
      <trkpt lat="45.23629" lon="5.85434">
        <ele>219.557</ele>
        <time>2019-10-07T12:00:19Z</time>
      </trkpt>
      <trkpt lat="45.23474" lon="5.85421">
        <ele>221.996</ele>
        <time>2019-10-07T12:00:49Z</time>
      </trkpt>
      <trkpt lat="45.23321" lon="5.85371">
        <ele>221.961</ele>
        <time>2019-10-07T12:01:19Z</time>
      </trkpt>
      <trkpt lat="45.23164" lon="5.85325">
        <ele>221.362</ele>
        <time>2019-10-07T12:01:49Z</time>
      </trkpt>
      <trkpt lat="45.23039" lon="5.85329">
        <ele>224.703</ele>
        <time>2019-10-07T12:02:22Z</time>
      </trkpt>
      <trkpt lat="45.22924" lon="5.85188">
        <ele>228.511</ele>
        <time>2019-10-07T12:02:52Z</time>
      </trkpt>
      <trkpt lat="45.22808" lon="5.85046">
        <ele>232.645</ele>
        <time>2019-10-07T12:03:22Z</time>
      </trkpt>
      <trkpt lat="45.22689" lon="5.84899">
        <ele>228.65</ele>
        <time>2019-10-07T12:03:52Z</time>
      </trkpt>
      <trkpt lat="45.22572" lon="5.84762">
        <ele>232.292</ele>
        <time>2019-10-07T12:04:22Z</time>
      </trkpt>
      <trkpt lat="45.22456" lon="5.84611">
        <ele>232.1</ele>
        <time>2019-10-07T12:04:52Z</time>
      </trkpt>
      <trkpt lat="45.22332" lon="5.84458">
        <ele>225.92</ele>
        <time>2019-10-07T12:05:22Z</time>
      </trkpt>
      <trkpt lat="45.22193" lon="5.84297">
        <ele>230.148</ele>
        <time>2019-10-07T12:05:55Z</time>
      </trkpt>
      <trkpt lat="45.22076" lon="5.84157">
        <ele>227.672</ele>
        <time>2019-10-07T12:06:25Z</time>
      </trkpt>
      <trkpt lat="45.21955" lon="5.84015">
        <ele>227.272</ele>
        <time>2019-10-07T12:06:55Z</time>
      </trkpt>
      <trkpt lat="45.21848" lon="5.83842">
        <ele>232.035</ele>
        <time>2019-10-07T12:07:25Z</time>
      </trkpt>
      <trkpt lat="45.2174" lon="5.83667">
        <ele>230.813</ele>
        <time>2019-10-07T12:07:55Z</time>
      </trkpt>
      <trkpt lat="45.21641" lon="5.83472">
        <ele>227.398</ele>
        <time>2019-10-07T12:08:25Z</time>
      </trkpt>
      <trkpt lat="45.21536" lon="5.83302">
        <ele>225.939</ele>
        <time>2019-10-07T12:08:55Z</time>
      </trkpt>
      <trkpt lat="45.21407" lon="5.83142">
        <ele>224.703</ele>
        <time>2019-10-07T12:09:25Z</time>
      </trkpt>
      <trkpt lat="45.21262" lon="5.82995">
        <ele>224.279</ele>
        <time>2019-10-07T12:09:58Z</time>
      </trkpt>
      <trkpt lat="45.21134" lon="5.82881">
        <ele>222.145</ele>
        <time>2019-10-07T12:10:31Z</time>
      </trkpt>
      <trkpt lat="45.21008" lon="5.8274">
        <ele>222.807</ele>
        <time>2019-10-07T12:11:01Z</time>
      </trkpt>
      <trkpt lat="45.2087" lon="5.82592">
        <ele>222.088</ele>
        <time>2019-10-07T12:11:31Z</time>
      </trkpt>
      <trkpt lat="45.20736" lon="5.82443">
        <ele>224.247</ele>
        <time>2019-10-07T12:12:01Z</time>
      </trkpt>
      <trkpt lat="45.20587" lon="5.82314">
        <ele>223.792</ele>
        <time>2019-10-07T12:12:31Z</time>
      </trkpt>
      <trkpt lat="45.20458" lon="5.82145">
        <ele>222.728</ele>
        <time>2019-10-07T12:13:01Z</time>
      </trkpt>
      <trkpt lat="45.20369" lon="5.81914">
        <ele>221.734</ele>
        <time>2019-10-07T12:13:34Z</time>
      </trkpt>
      <trkpt lat="45.2046" lon="5.81713">
        <ele>221.383</ele>
        <time>2019-10-07T12:14:04Z</time>
      </trkpt>
      <trkpt lat="45.2056" lon="5.81538">
        <ele>218.916</ele>
        <time>2019-10-07T12:14:34Z</time>
      </trkpt>
      <trkpt lat="45.20679" lon="5.81383">
        <ele>219.278</ele>
        <time>2019-10-07T12:15:04Z</time>
      </trkpt>
      <trkpt lat="45.20681" lon="5.81149">
        <ele>218.717</ele>
        <time>2019-10-07T12:15:34Z</time>
      </trkpt>
      <trkpt lat="45.20685" lon="5.80953">
        <ele>217.934</ele>
        <time>2019-10-07T12:16:04Z</time>
      </trkpt>
      <trkpt lat="45.20685" lon="5.80828">
        <ele>217.07</ele>
        <time>2019-10-07T12:28:04.001Z</time>
      </trkpt>
      <trkpt lat="45.20696" lon="5.80656">
        <ele>217.244</ele>
        <time>2019-10-07T12:28:34.001Z</time>
      </trkpt>
      <trkpt lat="45.20714" lon="5.80429">
        <ele>218.121</ele>
        <time>2019-10-07T12:29:07.001Z</time>
      </trkpt>
      <trkpt lat="45.20695" lon="5.80219">
        <ele>218.371</ele>
        <time>2019-10-07T12:29:37.001Z</time>
      </trkpt>
      <trkpt lat="45.20656" lon="5.80013">
        <ele>220.119</ele>
        <time>2019-10-07T12:30:07.001Z</time>
      </trkpt>
      <trkpt lat="45.20605" lon="5.79812">
        <ele>222.543</ele>
        <time>2019-10-07T12:30:37.001Z</time>
      </trkpt>
      <trkpt lat="45.20506" lon="5.79633">
        <ele>222.113</ele>
        <time>2019-10-07T12:31:07.001Z</time>
      </trkpt>
      <trkpt lat="45.20373" lon="5.79554">
        <ele>219.197</ele>
        <time>2019-10-07T12:31:37.001Z</time>
      </trkpt>
      <trkpt lat="45.20516" lon="5.79478">
        <ele>215.6</ele>
        <time>2019-10-07T12:32:07.001Z</time>
      </trkpt>
      <trkpt lat="45.20487" lon="5.79331">
        <ele>217.123</ele>
        <time>2019-10-07T12:32:43.001Z</time>
      </trkpt>
      <trkpt lat="45.20566" lon="5.79175">
        <ele>217.764</ele>
        <time>2019-10-07T12:33:13.001Z</time>
      </trkpt>
      <trkpt lat="45.20527" lon="5.78963">
        <ele>217.908</ele>
        <time>2019-10-07T12:33:43.001Z</time>
      </trkpt>
      <trkpt lat="45.20462" lon="5.78806">
        <ele>220.37</ele>
        <time>2019-10-07T12:34:13.001Z</time>
      </trkpt>
      <trkpt lat="45.20453" lon="5.78602">
        <ele>217.998</ele>
        <time>2019-10-07T12:34:43.001Z</time>
      </trkpt>
      <trkpt lat="45.20398" lon="5.78388">
        <ele>217.649</ele>
        <time>2019-10-07T12:35:13.001Z</time>
      </trkpt>
      <trkpt lat="45.20295" lon="5.78254">
        <ele>214.707</ele>
        <time>2019-10-07T12:35:43.001Z</time>
      </trkpt>
      <trkpt lat="45.20184" lon="5.78145">
        <ele>214.116</ele>
        <time>2019-10-07T12:36:13.001Z</time>
      </trkpt>
      <trkpt lat="45.20093" lon="5.77974">
        <ele>213.321</ele>
        <time>2019-10-07T12:36:46.001Z</time>
      </trkpt>
      <trkpt lat="45.20143" lon="5.77773">
        <ele>215.812</ele>
        <time>2019-10-07T12:37:16Z</time>
      </trkpt>
      <trkpt lat="45.20161" lon="5.77564">
        <ele>217.294</ele>
        <time>2019-10-07T12:37:46.001Z</time>
      </trkpt>
      <trkpt lat="45.2016" lon="5.77341">
        <ele>215.355</ele>
        <time>2019-10-07T12:38:16Z</time>
      </trkpt>
      <trkpt lat="45.20087" lon="5.77143">
        <ele>212.222</ele>
        <time>2019-10-07T12:38:46.001Z</time>
      </trkpt>
      <trkpt lat="45.19967" lon="5.77021">
        <ele>211.137</ele>
        <time>2019-10-07T12:39:16Z</time>
      </trkpt>
      <trkpt lat="45.19889" lon="5.7693">
        <ele>217.279</ele>
        <time>2019-10-07T12:39:46.001Z</time>
      </trkpt>
      <trkpt lat="45.19817" lon="5.7703">
        <ele>223.871</ele>
        <time>2019-10-07T12:40:19.001Z</time>
      </trkpt>
      <trkpt lat="45.19807" lon="5.77048">
        <ele>220.514</ele>
        <time>2019-10-07T12:41:25.001Z</time>
      </trkpt>
      <trkpt lat="45.19813" lon="5.77035">
        <ele>216.724</ele>
        <time>2019-10-07T12:45:01.001Z</time>
      </trkpt>
      <trkpt lat="45.19745" lon="5.76902">
        <ele>216.447</ele>
        <time>2019-10-07T12:45:31.001Z</time>
      </trkpt>
      <trkpt lat="45.19663" lon="5.76725">
        <ele>214.169</ele>
        <time>2019-10-07T12:46:01.001Z</time>
      </trkpt>
      <trkpt lat="45.19586" lon="5.76547">
        <ele>213.501</ele>
        <time>2019-10-07T12:46:31.001Z</time>
      </trkpt>
      <trkpt lat="45.19549" lon="5.76347">
        <ele>215.978</ele>
        <time>2019-10-07T12:47:01.001Z</time>
      </trkpt>
      <trkpt lat="45.19544" lon="5.76117">
        <ele>217.398</ele>
        <time>2019-10-07T12:47:34.001Z</time>
      </trkpt>
      <trkpt lat="45.19575" lon="5.75913">
        <ele>219.005</ele>
        <time>2019-10-07T12:48:04.001Z</time>
      </trkpt>
      <trkpt lat="45.1965" lon="5.75725">
        <ele>217.979</ele>
        <time>2019-10-07T12:48:34.001Z</time>
      </trkpt>
      <trkpt lat="45.19677" lon="5.75524">
        <ele>220.215</ele>
        <time>2019-10-07T12:49:04.001Z</time>
      </trkpt>
      <trkpt lat="45.19568" lon="5.75416">
        <ele>210.64</ele>
        <time>2019-10-07T12:49:34.001Z</time>
      </trkpt>
      <trkpt lat="45.19431" lon="5.75348">
        <ele>210.053</ele>
        <time>2019-10-07T12:50:04.001Z</time>
      </trkpt>
      <trkpt lat="45.19283" lon="5.75309">
        <ele>210.558</ele>
        <time>2019-10-07T12:50:34.001Z</time>
      </trkpt>
      <trkpt lat="45.1913" lon="5.75243">
        <ele>211.808</ele>
        <time>2019-10-07T12:51:04.001Z</time>
      </trkpt>
      <trkpt lat="45.18966" lon="5.75152">
        <ele>214.27</ele>
        <time>2019-10-07T12:51:37.001Z</time>
      </trkpt>
      <trkpt lat="45.18863" lon="5.74992">
        <ele>213.697</ele>
        <time>2019-10-07T12:52:07.001Z</time>
      </trkpt>
      <trkpt lat="45.18835" lon="5.74774">
        <ele>216.545</ele>
        <time>2019-10-07T12:52:37.001Z</time>
      </trkpt>
      <trkpt lat="45.18831" lon="5.74642">
        <ele>225.07</ele>
        <time>2019-10-07T12:58:07.001Z</time>
      </trkpt>
      <trkpt lat="45.18833" lon="5.74481">
        <ele>227.951</ele>
        <time>2019-10-07T12:58:40.001Z</time>
      </trkpt>
      <trkpt lat="45.18826" lon="5.74337">
        <ele>219.324</ele>
        <time>2019-10-07T12:59:10.001Z</time>
      </trkpt>
      <trkpt lat="45.1886" lon="5.74175">
        <ele>222.114</ele>
        <time>2019-10-07T12:59:40.001Z</time>
      </trkpt>
      <trkpt lat="45.18833" lon="5.74009">
        <ele>215.508</ele>
        <time>2019-10-07T13:00:13.001Z</time>
      </trkpt>
      <trkpt lat="45.18765" lon="5.73852">
        <ele>210.788</ele>
        <time>2019-10-07T13:00:43.001Z</time>
      </trkpt>
      <trkpt lat="45.18709" lon="5.7369">
        <ele>208.952</ele>
        <time>2019-10-07T13:01:13.001Z</time>
      </trkpt>
      <trkpt lat="45.18642" lon="5.73525">
        <ele>209.075</ele>
        <time>2019-10-07T13:01:43.001Z</time>
      </trkpt>
      <trkpt lat="45.18595" lon="5.73396">
        <ele>212.758</ele>
        <time>2019-10-07T13:02:13.001Z</time>
      </trkpt>
      <trkpt lat="45.18528" lon="5.7323">
        <ele>212.085</ele>
        <time>2019-10-07T13:02:43.001Z</time>
      </trkpt>
      <trkpt lat="45.18455" lon="5.73179">
        <ele>225.985</ele>
        <time>2019-10-07T13:03:19.001Z</time>
      </trkpt>
      <trkpt lat="45.18393" lon="5.73156">
        <ele>220.733</ele>
        <time>2019-10-07T13:03:52.001Z</time>
      </trkpt>
      <trkpt lat="45.18347" lon="5.73051">
        <ele>216.76</ele>
        <time>2019-10-07T13:04:25.001Z</time>
      </trkpt>
      <trkpt lat="45.18267" lon="5.72901">
        <ele>222.012</ele>
        <time>2019-10-07T13:04:55.001Z</time>
      </trkpt>
      <trkpt lat="45.18205" lon="5.72725">
        <ele>226.15</ele>
        <time>2019-10-07T13:05:25.001Z</time>
      </trkpt>
      <trkpt lat="45.18158" lon="5.72559">
        <ele>223.548</ele>
        <time>2019-10-07T13:05:55.001Z</time>
      </trkpt>
      <trkpt lat="45.18116" lon="5.72395">
        <ele>222.05</ele>
        <time>2019-10-07T13:06:25.001Z</time>
      </trkpt>
      <trkpt lat="45.18157" lon="5.72268">
        <ele>223.386</ele>
        <time>2019-10-07T13:06:55.001Z</time>
      </trkpt>
      <trkpt lat="45.18284" lon="5.72182">
        <ele>224.755</ele>
        <time>2019-10-07T13:07:25.001Z</time>
      </trkpt>
      <trkpt lat="45.18409" lon="5.7212">
        <ele>230.233</ele>
        <time>2019-10-07T13:07:58.001Z</time>
      </trkpt>
      <trkpt lat="45.18441" lon="5.72109">
        <ele>220.957</ele>
        <time>2019-10-07T13:08:46.001Z</time>
      </trkpt>
      <trkpt lat="45.18442" lon="5.72101">
        <ele>221.23</ele>
        <time>2019-10-07T13:13:22.001Z</time>
      </trkpt>
      <trkpt lat="45.18442" lon="5.72099">
        <ele>219.009</ele>
        <time>2019-10-07T13:17:31.001Z</time>
      </trkpt>
      <trkpt lat="45.18439" lon="5.72102">
        <ele>214.897</ele>
        <time>2019-10-07T13:23:34.001Z</time>
      </trkpt>
      <trkpt lat="45.18436" lon="5.72116">
        <ele>220.004</ele>
        <time>2019-10-07T13:28:10.001Z</time>
      </trkpt>
      <trkpt lat="45.18443" lon="5.72087">
        <ele>216.775</ele>
        <time>2019-10-07T13:32:16Z</time>
      </trkpt>
      <trkpt lat="45.1844" lon="5.72083">
        <ele>227.9</ele>
        <time>2019-10-07T13:38:07.001Z</time>
      </trkpt>
      <trkpt lat="45.18443" lon="5.72081">
        <ele>232.091</ele>
        <time>2019-10-07T13:39:10.001Z</time>
      </trkpt>
      <trkpt lat="45.18441" lon="5.72083">
        <ele>225</ele>
        <time>2019-10-07T13:43:49.001Z</time>
      </trkpt>
      <trkpt lat="45.18429" lon="5.72066">
        <ele>232.426</ele>
        <time>2019-10-07T13:45:33.001Z</time>
      </trkpt>
      <trkpt lat="45.18436" lon="5.72081">
        <ele>235.395</ele>
        <time>2019-10-07T13:47:24.001Z</time>
      </trkpt>
      <trkpt lat="45.18437" lon="5.7208">
        <ele>236.695</ele>
        <time>2019-10-07T13:51:21.001Z</time>
      </trkpt>
      <trkpt lat="45.18437" lon="5.7208">
        <ele>236.695</ele>
        <time>2019-10-07T13:52:09.001Z</time>
      </trkpt>
      <trkpt lat="45.18435" lon="5.72082">
        <ele>234.201</ele>
        <time>2019-10-07T13:55:03.001Z</time>
      </trkpt>
      <trkpt lat="45.18434" lon="5.72082">
        <ele>234.675</ele>
        <time>2019-10-07T13:59:06.001Z</time>
      </trkpt>
      <trkpt lat="45.18437" lon="5.72087">
        <ele>234.145</ele>
        <time>2019-10-07T14:00:21.001Z</time>
      </trkpt>
      <trkpt lat="45.18439" lon="5.72092">
        <ele>233.827</ele>
        <time>2019-10-07T14:03:03.001Z</time>
      </trkpt>
      <trkpt lat="45.18438" lon="5.72093">
        <ele>230.633</ele>
        <time>2019-10-07T14:07:12.001Z</time>
      </trkpt>
    </trkseg>
  </trk>
</gpx>